Main page


Airports :

Hamedan, Iran

Hamadan International Airport

latitude: 34-52-05N, longitude: 048-33-08E, elevation: 1757 m

Current weather observation

The report was made 59 minutes ago, at 09:00 UTC
Wind 10 kt from the North/Northwest
Temperature 10°C
Humidity 40%
Pressure 1017 hPa
Visibility 10 km or more
Scattered clouds at a height of 4000 ft

METAR: OIHH 180900Z 33010KT 9999 SCT040 10/M03 Q1017

Time: 13:29 (09:59 UTC)

TAF: missing

Weather observations and forecasts of more than 4000 airports (METAR and TAF reports).

The available stations are represented by yellow and red dots on the map.

Hover mouse over dot to see the name of the station.

Then click to see weather observations and forecasts.

To change the map : click on the green buttons with a black cross to zoom in, on the green button with a dash to zoom out, or on the green arrows for adjacent maps.